Time;durP1;ratioP1;P1;durP2;ratioP2;P2;SDS_P1;SDS_P2;PMS_P1;PMS_P2;Temp;Humidity;BMP_temperature;BMP_pressure;BME280_temperature;BME280_humidity;BME280_pressure;Samples;Min_cycle;Max_cycle;Signal;HPM_P1;HPM_P2
2022/12/24 00:00:56;;;;;;;18.02;8.85;;;;;;;;;;12841884;19;20546;-68
2022/12/24 00:05:13;;;;;;;16.15;9.30;;;;;;;;;;12840823;19;20011;-67
2022/12/24 00:09:30;;;;;;;17.38;9.80;;;;;;;;;;12841718;19;20402;-67
2022/12/24 00:13:48;;;;;;;18.60;9.43;;;;;;;;;;12826432;19;118763;-68
2022/12/24 00:18:05;;;;;;;17.52;9.90;;;;;;;;;;12840149;19;20302;-68
2022/12/24 00:22:22;;;;;;;18.70;11.20;;;;;;;;;;12840210;19;20010;-67
2022/12/24 00:26:39;;;;;;;25.43;14.30;;;;;;;;;;12840399;19;20375;-68
2022/12/24 00:30:57;;;;;;;21.95;11.95;;;;;;;;;;12840505;19;20448;-68
2022/12/24 00:35:14;;;;;;;18.05;10.82;;;;;;;;;;12838833;19;20442;-68
2022/12/24 00:39:32;;;;;;;16.73;9.70;;;;;;;;;;12839374;19;20378;-68
2022/12/24 00:43:55;;;;;;;15.93;9.52;;;;;;;;;;12839035;19;20430;-67
2022/12/24 00:48:12;;;;;;;15.38;9.27;;;;;;;;;;12837261;19;20023;-68
2022/12/24 00:52:29;;;;;;;17.85;9.10;;;;;;;;;;12836794;19;20445;-68
2022/12/24 00:56:46;;;;;;;27.90;13.00;;;;;;;;;;12835614;19;20330;-68
2022/12/24 01:01:04;;;;;;;44.03;17.02;;;;;;;;;;12836206;19;20433;-68
2022/12/24 01:05:22;;;;;;;22.80;11.52;;;;;;;;;;12837370;19;20386;-68
2022/12/24 01:09:39;;;;;;;19.20;10.85;;;;;;;;;;12840674;19;20321;-68
2022/12/24 01:13:56;;;;;;;13.35;7.63;;;;;;;;;;12838028;19;20038;-68
2022/12/24 01:18:13;;;;;;;12.07;7.88;;;;;;;;;;12836777;19;20472;-67
2022/12/24 01:22:30;;;;;;;13.25;7.72;;;;;;;;;;12834891;19;20007;-68
2022/12/24 01:26:47;;;;;;;12.77;7.65;;;;;;;;;;12837038;19;20425;-68
2022/12/24 01:31:17;;;;;;;16.10;8.05;;;;;;;;;;12837009;19;20438;-68
2022/12/24 01:35:42;;;;;;;12.07;7.10;;;;;;;;;;12835083;19;20465;-67
2022/12/24 01:44:46;;;;;;;13.75;7.13;;;;;;;;;;12836417;19;20444;-68
2022/12/24 01:49:05;;;;;;;11.77;6.75;;;;;;;;;;12834325;19;20006;-67
2022/12/24 01:53:23;;;;;;;9.20;5.57;;;;;;;;;;12833466;19;20323;-67
2022/12/24 01:57:54;;;;;;;10.33;5.10;;;;;;;;;;12835640;19;20350;-68
2022/12/24 02:02:12;;;;;;;9.55;5.75;;;;;;;;;;12841866;19;20535;-67
2022/12/24 02:06:29;;;;;;;12.07;7.43;;;;;;;;;;12847867;19;20331;-67
2022/12/24 02:10:47;;;;;;;12.88;7.47;;;;;;;;;;12848120;19;20468;-67
2022/12/24 02:15:07;;;;;;;12.45;7.78;;;;;;;;;;12845809;19;20311;-67
2022/12/24 02:19:28;;;;;;;15.13;7.97;;;;;;;;;;12845025;19;19999;-67
2022/12/24 02:24:40;;;;;;;13.57;8.93;;;;;;;;;;12846895;19;20426;-67
2022/12/24 02:29:20;;;;;;;14.15;7.97;;;;;;;;;;12843613;19;20046;-66
2022/12/24 02:34:00;;;;;;;14.02;8.57;;;;;;;;;;12844530;19;20457;-68
2022/12/24 02:38:48;;;;;;;13.98;9.10;;;;;;;;;;12845169;19;20325;-68
2022/12/24 02:43:14;;;;;;;19.10;9.65;;;;;;;;;;12843817;19;20014;-66
2022/12/24 02:47:32;;;;;;;25.90;13.18;;;;;;;;;;12844405;19;20497;-67
2022/12/24 02:51:50;;;;;;;15.48;8.13;;;;;;;;;;12844261;19;20352;-67
2022/12/24 02:56:25;;;;;;;12.40;6.68;;;;;;;;;;12844621;19;20011;-67
2022/12/24 03:01:17;;;;;;;10.32;5.97;;;;;;;;;;12843178;19;20373;-67
2022/12/24 03:05:55;;;;;;;13.48;7.10;;;;;;;;;;12841488;19;20497;-67
2022/12/24 03:11:04;;;;;;;10.13;6.07;;;;;;;;;;12842329;19;21376;-67
2022/12/24 03:15:25;;;;;;;10.98;6.63;;;;;;;;;;12842189;19;20323;-66
2022/12/24 03:19:42;;;;;;;8.93;5.07;;;;;;;;;;12842691;19;20349;-67
2022/12/24 03:24:00;;;;;;;8.35;4.63;;;;;;;;;;12842179;19;20339;-67
2022/12/24 03:28:23;;;;;;;7.65;4.25;;;;;;;;;;12841662;19;20425;-67
2022/12/24 03:32:40;;;;;;;6.43;3.75;;;;;;;;;;12843985;19;20468;-67
2022/12/24 03:36:57;;;;;;;5.57;3.75;;;;;;;;;;12842728;19;20126;-67
2022/12/24 03:41:15;;;;;;;3.80;2.90;;;;;;;;;;12842310;19;20450;-67
2022/12/24 03:45:32;;;;;;;7.70;4.27;;;;;;;;;;12842982;19;20033;-67
2022/12/24 03:49:51;;;;;;;6.78;4.88;;;;;;;;;;12842718;19;20375;-67
2022/12/24 03:54:07;;;;;;;11.95;6.40;;;;;;;;;;12840213;19;20438;-66
2022/12/24 03:58:24;;;;;;;13.18;6.55;;;;;;;;;;12841875;19;20291;-67
2022/12/24 04:02:42;;;;;;;9.88;6.32;;;;;;;;;;12841498;19;20011;-68
2022/12/24 04:06:59;;;;;;;12.82;6.93;;;;;;;;;;12840797;19;20545;-67
2022/12/24 04:11:16;;;;;;;8.20;5.03;;;;;;;;;;12839161;19;20330;-67
2022/12/24 04:15:33;;;;;;;8.43;3.83;;;;;;;;;;12838986;19;20037;-69
2022/12/24 04:19:51;;;;;;;6.18;4.07;;;;;;;;;;12839173;19;20331;-66
2022/12/24 04:24:08;;;;;;;5.85;4.15;;;;;;;;;;12836712;19;20041;-66
2022/12/24 04:28:24;;;;;;;6.28;4.30;;;;;;;;;;12840222;19;20325;-67
2022/12/24 04:32:42;;;;;;;6.35;3.97;;;;;;;;;;12842340;19;20339;-67
2022/12/24 04:37:02;;;;;;;7.40;4.82;;;;;;;;;;12838479;19;20473;-66
2022/12/24 04:41:21;;;;;;;6.07;4.78;;;;;;;;;;12838405;19;20344;-67
2022/12/24 04:45:40;;;;;;;8.85;4.95;;;;;;;;;;12837706;19;20486;-67
2022/12/24 04:49:58;;;;;;;7.53;4.75;;;;;;;;;;12839221;19;20447;-67
2022/12/24 04:54:14;;;;;;;9.00;5.13;;;;;;;;;;12836804;19;20429;-67
2022/12/24 04:58:33;;;;;;;7.65;5.38;;;;;;;;;;12837985;19;20003;-67
2022/12/24 05:02:50;;;;;;;9.25;5.65;;;;;;;;;;12836721;19;20311;-67
2022/12/24 05:07:07;;;;;;;8.60;5.80;;;;;;;;;;12837740;19;20414;-67
2022/12/24 05:11:25;;;;;;;14.15;6.70;;;;;;;;;;12837847;19;20025;-67
2022/12/24 05:15:43;;;;;;;35.15;19.48;;;;;;;;;;12837487;19;20006;-67
2022/12/24 05:20:00;;;;;;;;;;;;;;;;;;12837297;19;20437;-70
2022/12/24 05:28:56;;;;;;;16.15;9.60;;;;;;;;;;12837447;19;20322;-67
2022/12/24 05:33:13;;;;;;;32.17;20.08;;;;;;;;;;12835444;19;20335;-67
2022/12/24 05:37:30;;;;;;;12.20;8.10;;;;;;;;;;12847330;19;20083;-67
2022/12/24 05:41:59;;;;;;;6.57;4.83;;;;;;;;;;11558157;19;10020693;-67
2022/12/24 05:46:19;;;;;;;9.00;5.80;;;;;;;;;;10308677;19;10001995;-67
2022/12/24 05:50:39;;;;;;;9.85;6.70;;;;;;;;;;12847631;19;20006;-66
2022/12/24 05:54:56;;;;;;;8.88;6.57;;;;;;;;;;12849587;19;20033;-67
2022/12/24 05:59:13;;;;;;;9.52;7.00;;;;;;;;;;12846515;19;20462;-67
2022/12/24 06:03:31;;;;;;;8.30;6.55;;;;;;;;;;12848242;19;20399;-67
2022/12/24 06:07:48;;;;;;;7.30;5.78;;;;;;;;;;12846236;19;20442;-67
2022/12/24 06:12:05;;;;;;;6.50;4.70;;;;;;;;;;12847337;19;20327;-68
2022/12/24 06:16:24;;;;;;;7.85;5.15;;;;;;;;;;12848073;19;20425;-67
2022/12/24 06:20:41;;;;;;;7.78;5.45;;;;;;;;;;12845265;19;20015;-68
2022/12/24 06:24:58;;;;;;;7.53;5.50;;;;;;;;;;12847231;19;20057;-67
2022/12/24 06:29:15;;;;;;;9.23;5.68;;;;;;;;;;12845366;19;20315;-68
2022/12/24 06:33:33;;;;;;;9.90;6.05;;;;;;;;;;12844493;19;20359;-68
2022/12/24 06:37:50;;;;;;;8.43;5.10;;;;;;;;;;12844229;19;20086;-67
2022/12/24 06:42:07;;;;;;;7.88;5.15;;;;;;;;;;12845016;19;20018;-67
2022/12/24 06:46:24;;;;;;;34.28;17.23;;;;;;;;;;12843834;19;20331;-67
2022/12/24 06:50:42;;;;;;;20.83;11.07;;;;;;;;;;12842448;19;20430;-67
2022/12/24 06:54:59;;;;;;;13.70;8.33;;;;;;;;;;12844429;19;20309;-67
2022/12/24 06:59:16;;;;;;;11.00;6.53;;;;;;;;;;12842983;19;20480;-66
2022/12/24 07:03:33;;;;;;;9.27;6.50;;;;;;;;;;12846116;19;20352;-66
2022/12/24 07:07:50;;;;;;;;;;;;;;;;;;12844933;19;20062;-66
2022/12/24 07:12:08;;;;;;;9.18;6.35;;;;;;;;;;12844364;19;20286;-68
2022/12/24 07:16:25;;;;;;;6.10;4.70;;;;;;;;;;12844107;19;20314;-66
2022/12/24 07:20:42;;;;;;;7.97;5.60;;;;;;;;;;12842793;19;20017;-68
2022/12/24 07:24:59;;;;;;;10.18;6.30;;;;;;;;;;12843864;19;20453;-67
2022/12/24 07:29:16;;;;;;;12.70;6.90;;;;;;;;;;12842370;19;20010;-67
2022/12/24 07:33:33;;;;;;;15.60;9.57;;;;;;;;;;12843928;19;20007;-67
2022/12/24 07:37:50;;;;;;;9.57;6.78;;;;;;;;;;12842657;19;20430;-66
2022/12/24 07:42:07;;;;;;;11.15;7.55;;;;;;;;;;12842281;19;20482;-67
2022/12/24 07:46:24;;;;;;;15.13;10.13;;;;;;;;;;12841010;19;20479;-66
2022/12/24 07:50:43;;;;;;;22.58;14.77;;;;;;;;;;12842001;19;20306;-66
2022/12/24 07:54:59;;;;;;;11.65;7.47;;;;;;;;;;12842589;19;20548;-66
2022/12/24 07:59:17;;;;;;;12.02;8.40;;;;;;;;;;12840145;19;20714;-68
2022/12/24 08:03:34;;;;;;;10.85;8.15;;;;;;;;;;12841746;19;20314;-66
2022/12/24 08:07:51;;;;;;;10.52;6.93;;;;;;;;;;12841598;19;20533;-66
2022/12/24 08:12:08;;;;;;;12.40;7.32;;;;;;;;;;12840597;19;20341;-66
2022/12/24 08:16:25;;;;;;;8.18;5.88;;;;;;;;;;12840646;19;20436;-67
2022/12/24 08:20:42;;;;;;;11.55;6.97;;;;;;;;;;12841019;19;20003;-67
2022/12/24 08:25:00;;;;;;;20.38;12.07;;;;;;;;;;12838097;19;20042;-67
2022/12/24 08:29:16;;;;;;;29.02;14.40;;;;;;;;;;12838898;19;20445;-66
2022/12/24 08:33:34;;;;;;;58.50;24.73;;;;;;;;;;12840769;19;20003;-67
2022/12/24 08:37:51;;;;;;;31.58;14.68;;;;;;;;;;12839245;19;20433;-67
2022/12/24 08:42:08;;;;;;;20.42;11.68;;;;;;;;;;12838580;19;20018;-68
2022/12/24 08:46:25;;;;;;;28.35;13.93;;;;;;;;;;12840519;19;20440;-67
2022/12/24 08:50:43;;;;;;;21.92;11.32;;;;;;;;;;12837063;19;20116;-67
2022/12/24 08:55:00;;;;;;;17.00;8.63;;;;;;;;;;12839498;19;20430;-67
2022/12/24 08:59:17;;;;;;;16.77;9.00;;;;;;;;;;12837690;19;20382;-67
2022/12/24 09:03:34;;;;;;;11.77;7.15;;;;;;;;;;12840223;19;20039;-67
2022/12/24 09:07:52;;;;;;;16.60;11.07;;;;;;;;;;12836244;19;20638;-68
2022/12/24 09:12:08;;;;;;;18.83;12.20;;;;;;;;;;12836864;19;20433;-67
2022/12/24 09:16:26;;;;;;;15.07;10.35;;;;;;;;;;12838664;19;20413;-66
2022/12/24 09:20:43;;;;;;;11.57;8.15;;;;;;;;;;12836334;19;20599;-67
2022/12/24 09:25:05;;;;;;;15.23;9.70;;;;;;;;;;12837688;19;20436;-67
2022/12/24 09:29:22;;;;;;;19.48;11.27;;;;;;;;;;12835519;19;20014;-66
2022/12/24 09:33:40;;;;;;;14.15;8.18;;;;;;;;;;12838229;19;20465;-67
2022/12/24 09:38:03;;;;;;;31.33;17.88;;;;;;;;;;12837024;19;20015;-68
2022/12/24 09:42:47;;;;;;;33.58;18.83;;;;;;;;;;12835592;19;20481;-66
2022/12/24 09:47:27;;;;;;;84.43;33.97;;;;;;;;;;12836024;19;20019;-67
2022/12/24 09:52:00;;;;;;;82.78;31.65;;;;;;;;;;12834959;19;20291;-66
2022/12/24 09:56:30;;;;;;;32.65;14.23;;;;;;;;;;12832999;19;20318;-68
2022/12/24 10:00:48;;;;;;;;;;;;;;;;;;12835714;19;20347;-68
2022/12/24 10:05:14;;;;;;;38.30;16.08;;;;;;;;;;12835782;19;20255;-68
2022/12/24 10:10:28;;;;;;;23.63;10.57;;;;;;;;;;12834523;19;20394;-67
2022/12/24 10:14:57;;;;;;;14.45;8.43;;;;;;;;;;12834550;19;20441;-67
2022/12/24 10:19:36;;;;;;;19.23;11.20;;;;;;;;;;12832876;19;20294;-67
2022/12/24 10:24:00;;;;;;;36.85;19.38;;;;;;;;;;12843279;19;20441;-67
2022/12/24 10:28:28;;;;;;;46.40;21.35;;;;;;;;;;12844401;19;20319;-67
2022/12/24 10:32:51;;;;;;;;;;;;;;;;;;12845719;19;20606;-67
2022/12/24 10:37:21;;;;;;;24.77;12.80;;;;;;;;;;12843009;19;19989;-67
2022/12/24 10:41:39;;;;;;;30.67;16.23;;;;;;;;;;12843302;19;20031;-68
2022/12/24 10:46:00;;;;;;;25.17;12.73;;;;;;;;;;12843688;19;20383;-66
2022/12/24 10:50:41;;;;;;;21.75;11.25;;;;;;;;;;12844158;19;20355;-66
2022/12/24 10:55:23;;;;;;;17.65;9.40;;;;;;;;;;12844835;19;20014;-67
2022/12/24 10:59:53;;;;;;;14.00;7.20;;;;;;;;;;12842671;19;20418;-68
2022/12/24 11:04:21;;;;;;;16.60;8.65;;;;;;;;;;12841723;19;20437;-67
2022/12/24 11:08:44;;;;;;;9.68;6.18;;;;;;;;;;12843262;19;20339;-67
2022/12/24 11:13:01;;;;;;;14.23;7.65;;;;;;;;;;12844407;19;20319;-68
2022/12/24 11:17:39;;;;;;;17.48;9.23;;;;;;;;;;12840784;19;20571;-67
2022/12/24 11:22:04;;;;;;;13.87;7.03;;;;;;;;;;12840442;19;20319;-67
2022/12/24 11:26:29;;;;;;;8.80;4.45;;;;;;;;;;12842090;19;20435;-67
2022/12/24 11:31:19;;;;;;;8.48;3.85;;;;;;;;;;12841282;19;20434;-67
2022/12/24 11:35:46;;;;;;;6.38;3.67;;;;;;;;;;12841741;19;20007;-67
2022/12/24 11:40:04;;;;;;;7.18;4.03;;;;;;;;;;12838971;19;20347;-67
2022/12/24 11:44:26;;;;;;;13.23;5.20;;;;;;;;;;12842762;19;20021;-67
2022/12/24 11:48:43;;;;;;;5.38;2.35;;;;;;;;;;12842488;19;20434;-66
2022/12/24 11:53:16;;;;;;;5.38;2.55;;;;;;;;;;12839274;19;20426;-70
2022/12/24 11:58:01;;;;;;;9.10;5.30;;;;;;;;;;12839747;19;20046;-67
2022/12/24 12:02:28;;;;;;;6.32;3.90;;;;;;;;;;12839130;19;20314;-68
2022/12/24 12:06:59;;;;;;;8.90;4.77;;;;;;;;;;12841887;19;20438;-66
2022/12/24 12:11:17;;;;;;;4.22;2.40;;;;;;;;;;12841238;19;20458;-67
2022/12/24 12:15:44;;;;;;;2.67;1.77;;;;;;;;;;12838854;19;20038;-68
2022/12/24 12:20:13;;;;;;;3.50;2.53;;;;;;;;;;12836730;19;20472;-67
2022/12/24 12:24:42;;;;;;;4.88;2.55;;;;;;;;;;12841116;19;20438;-67
2022/12/24 12:29:09;;;;;;;4.85;1.98;;;;;;;;;;12840844;19;20291;-66
2022/12/24 12:33:59;;;;;;;3.65;1.92;;;;;;;;;;12843020;19;20011;-70
2022/12/24 12:38:25;;;;;;;4.38;2.20;;;;;;;;;;12836510;19;20299;-67
2022/12/24 12:43:04;;;;;;;4.07;2.17;;;;;;;;;;12837472;19;20026;-66
2022/12/24 12:47:48;;;;;;;5.90;3.00;;;;;;;;;;12836551;19;20418;-68
2022/12/24 12:52:39;;;;;;;6.90;3.00;;;;;;;;;;12836505;19;20448;-67
2022/12/24 12:57:04;;;;;;;6.93;3.47;;;;;;;;;;12839088;19;20343;-66
2022/12/24 13:01:43;;;;;;;15.02;6.25;;;;;;;;;;12837404;19;20007;-67
2022/12/24 13:06:19;;;;;;;10.40;4.30;;;;;;;;;;12837663;19;20015;-66
2022/12/24 13:10:58;;;;;;;12.73;4.68;;;;;;;;;;12836261;19;20350;-67
2022/12/24 13:15:28;;;;;;;24.20;7.88;;;;;;;;;;12837136;19;20406;-66
2022/12/24 13:20:04;;;;;;;19.08;5.97;;;;;;;;;;12837484;19;20011;-67
2022/12/24 13:24:29;;;;;;;17.23;6.13;;;;;;;;;;12837235;19;20422;-66
2022/12/24 13:28:46;;;;;;;18.33;5.68;;;;;;;;;;12837156;19;20003;-67
2022/12/24 13:33:04;;;;;;;45.25;10.25;;;;;;;;;;12835815;19;20038;-67
2022/12/24 13:37:30;;;;;;;17.55;6.68;;;;;;;;;;12836421;19;20434;-67
2022/12/24 13:41:51;;;;;;;37.28;11.32;;;;;;;;;;12835850;19;20149;-66
2022/12/24 13:46:07;;;;;;;15.43;7.20;;;;;;;;;;12835100;19;20014;-68
2022/12/24 13:50:55;;;;;;;9.57;5.47;;;;;;;;;;12836516;19;20003;-66
2022/12/24 13:55:14;;;;;;;6.40;3.63;;;;;;;;;;12837755;19;20292;-67
2022/12/24 13:59:35;;;;;;;4.45;2.42;;;;;;;;;;12845519;19;20371;-67
2022/12/24 14:03:57;;;;;;;7.38;3.70;;;;;;;;;;12846089;19;20438;-66
2022/12/24 14:08:23;;;;;;;4.57;2.67;;;;;;;;;;12845321;19;20366;-67
2022/12/24 14:12:48;;;;;;;5.40;3.38;;;;;;;;;;12847398;19;20339;-67
2022/12/24 14:17:17;;;;;;;7.05;3.97;;;;;;;;;;12845210;19;20433;-69
2022/12/24 14:21:37;;;;;;;3.83;2.30;;;;;;;;;;12846448;19;20033;-66
2022/12/24 14:25:56;;;;;;;4.47;3.20;;;;;;;;;;12845289;19;20433;-66
2022/12/24 14:30:21;;;;;;;6.85;3.30;;;;;;;;;;12844187;19;20342;-66
2022/12/24 14:34:38;;;;;;;6.18;2.75;;;;;;;;;;12844205;19;20437;-66
2022/12/24 14:38:54;;;;;;;6.75;4.40;;;;;;;;;;12845937;19;20466;-68
2022/12/24 14:43:24;;;;;;;5.85;3.25;;;;;;;;;;12843193;19;20418;-67
2022/12/24 14:48:11;;;;;;;4.47;2.92;;;;;;;;;;12843394;19;20031;-67
2022/12/24 14:52:31;;;;;;;2.97;2.20;;;;;;;;;;12844343;19;20011;-66
2022/12/24 14:57:10;;;;;;;5.75;2.88;;;;;;;;;;12843663;19;20078;-67
2022/12/24 15:01:30;;;;;;;7.32;3.40;;;;;;;;;;12843503;19;20310;-67
2022/12/24 15:05:55;;;;;;;8.68;4.22;;;;;;;;;;12844329;19;20302;-67
2022/12/24 15:10:39;;;;;;;8.10;4.68;;;;;;;;;;12842312;19;20015;-67
2022/12/24 15:14:56;;;;;;;14.38;7.70;;;;;;;;;;12842072;19;20368;-68
2022/12/24 15:19:26;;;;;;;8.88;4.95;;;;;;;;;;12842526;19;20414;-68
2022/12/24 15:23:48;;;;;;;9.80;4.78;;;;;;;;;;12843243;19;20493;-69
2022/12/24 15:28:16;;;;;;;8.38;4.03;;;;;;;;;;12842334;19;20002;-67
2022/12/24 15:32:33;;;;;;;9.15;4.65;;;;;;;;;;12842553;19;20327;-68
2022/12/24 15:36:51;;;;;;;9.93;3.87;;;;;;;;;;12843047;19;20433;-67
2022/12/24 15:41:17;;;;;;;7.47;4.15;;;;;;;;;;12840079;19;20434;-68
2022/12/24 15:45:40;;;;;;;11.43;3.80;;;;;;;;;;12840088;19;20334;-67
2022/12/24 15:49:57;;;;;;;8.95;3.60;;;;;;;;;;12840845;19;20421;-67
2022/12/24 15:54:19;;;;;;;9.10;3.80;;;;;;;;;;12844024;19;20491;-67
2022/12/24 15:58:38;;;;;;;6.60;3.22;;;;;;;;;;12841511;19;20366;-67
2022/12/24 16:03:22;;;;;;;9.05;2.90;;;;;;;;;;12841987;19;20006;-67
2022/12/24 16:08:06;;;;;;;9.38;3.47;;;;;;;;;;12839381;19;20318;-67
2022/12/24 16:12:21;;;;;;;11.32;4.28;;;;;;;;;;12840151;19;20318;-68
2022/12/24 16:16:40;;;;;;;13.20;3.78;;;;;;;;;;12841599;19;20429;-67
2022/12/24 16:20:57;;;;;;;10.35;4.43;;;;;;;;;;12837811;19;20295;-68
2022/12/24 16:25:17;;;;;;;10.93;3.72;;;;;;;;;;12836742;19;20437;-68
2022/12/24 16:29:34;;;;;;;10.18;3.13;;;;;;;;;;12838528;19;20123;-67
2022/12/24 16:33:51;;;;;;;7.82;3.00;;;;;;;;;;12840398;19;20323;-66
2022/12/24 16:38:09;;;;;;;11.35;3.92;;;;;;;;;;12837110;19;20282;-68
2022/12/24 16:47:03;;;;;;;13.80;6.65;;;;;;;;;;12839227;19;20315;-68
2022/12/24 16:51:20;;;;;;;11.32;6.10;;;;;;;;;;12836754;19;20377;-67
2022/12/24 16:55:37;;;;;;;13.50;7.28;;;;;;;;;;12837829;19;20018;-69
2022/12/24 16:59:54;;;;;;;12.27;6.27;;;;;;;;;;12837253;19;20335;-66
2022/12/24 17:04:12;;;;;;;16.43;7.07;;;;;;;;;;12837138;19;20078;-68
2022/12/24 17:08:28;;;;;;;21.42;12.25;;;;;;;;;;12837916;19;20432;-66
2022/12/24 17:12:45;;;;;;;25.27;12.95;;;;;;;;;;12837384;19;20007;-66
2022/12/24 17:17:03;;;;;;;20.50;10.65;;;;;;;;;;12836964;19;20312;-67
2022/12/24 17:21:20;;;;;;;23.42;10.00;;;;;;;;;;12836098;19;20434;-67
2022/12/24 17:25:37;;;;;;;24.67;10.70;;;;;;;;;;12837148;19;20018;-69
2022/12/24 17:29:54;;;;;;;26.90;11.05;;;;;;;;;;12836032;19;20003;-67
2022/12/24 17:34:11;;;;;;;18.77;7.87;;;;;;;;;;12835957;19;20437;-67
2022/12/24 17:38:28;;;;;;;14.90;5.95;;;;;;;;;;12836560;19;20418;-68
2022/12/24 17:42:45;;;;;;;19.98;7.93;;;;;;;;;;12834727;19;20334;-66
2022/12/24 17:47:03;;;;;;;13.82;7.25;;;;;;;;;;12836400;19;20363;-66
2022/12/24 17:51:22;;;;;;;10.40;5.85;;;;;;;;;;12836058;19;20336;-66
2022/12/24 17:55:43;;;;;;;14.43;7.45;;;;;;;;;;12835972;19;20011;-66
2022/12/24 17:59:59;;;;;;;14.85;7.75;;;;;;;;;;12834742;19;20014;-66
2022/12/24 18:04:16;;;;;;;20.42;10.57;;;;;;;;;;12834667;19;20027;-67
2022/12/24 18:08:34;;;;;;;27.83;13.15;;;;;;;;;;12836144;19;20011;-66
2022/12/24 18:12:51;;;;;;;19.50;9.18;;;;;;;;;;12833126;19;20315;-66
2022/12/24 18:17:07;;;;;;;24.90;11.13;;;;;;;;;;12833854;19;20437;-67
2022/12/24 18:21:27;;;;;;;26.02;12.05;;;;;;;;;;12832372;19;20422;-67
2022/12/24 18:25:44;;;;;;;23.00;11.75;;;;;;;;;;12835132;19;20295;-67
2022/12/24 18:30:01;;;;;;;39.10;17.65;;;;;;;;;;12834876;19;20336;-67
2022/12/24 18:34:18;;;;;;;41.78;17.40;;;;;;;;;;12834419;19;20011;-67
2022/12/24 18:38:35;;;;;;;19.98;10.38;;;;;;;;;;12836989;19;20298;-67
2022/12/24 18:42:52;;;;;;;28.97;15.63;;;;;;;;;;12838524;19;20308;-69
2022/12/24 18:47:09;;;;;;;33.55;16.38;;;;;;;;;;12845077;19;20306;-68
2022/12/24 18:51:30;;;;;;;30.80;12.48;;;;;;;;;;12845608;19;20302;-67
2022/12/24 18:55:47;;;;;;;20.90;8.52;;;;;;;;;;12846102;19;20339;-67
2022/12/24 19:00:05;;;;;;;26.73;10.00;;;;;;;;;;12844257;19;20370;-67
2022/12/24 19:04:22;;;;;;;;;;;;;;;;;;12845069;19;20425;-68
2022/12/24 19:08:39;;;;;;;18.38;8.18;;;;;;;;;;12844337;19;20263;-68
2022/12/24 19:13:15;;;;;;;22.00;9.15;;;;;;;;;;12843840;19;20327;-66
2022/12/24 19:17:32;;;;;;;19.88;9.38;;;;;;;;;;12843781;19;20415;-68
2022/12/24 19:21:50;;;;;;;28.00;11.88;;;;;;;;;;12842776;19;20451;-67
2022/12/24 19:26:08;;;;;;;36.78;15.52;;;;;;;;;;12841968;19;20446;-69
2022/12/24 19:30:25;;;;;;;36.17;14.95;;;;;;;;;;12842242;19;20320;-67
2022/12/24 19:34:42;;;;;;;26.17;10.70;;;;;;;;;;12842883;19;20327;-67
2022/12/24 19:38:59;;;;;;;26.15;9.45;;;;;;;;;;12843030;19;20442;-67
2022/12/24 19:43:16;;;;;;;37.60;16.08;;;;;;;;;;12841141;19;20352;-67
2022/12/24 19:47:33;;;;;;;59.13;28.73;;;;;;;;;;12843144;19;20006;-68
2022/12/24 19:51:50;;;;;;;53.40;24.55;;;;;;;;;;12842001;19;20030;-67
2022/12/24 19:56:07;;;;;;;37.13;17.95;;;;;;;;;;12840315;19;20302;-68
2022/12/24 20:00:25;;;;;;;40.90;18.05;;;;;;;;;;12841240;19;20430;-69
2022/12/24 20:04:42;;;;;;;62.47;31.00;;;;;;;;;;12840857;19;20066;-67
2022/12/24 20:09:01;;;;;;;47.85;21.17;;;;;;;;;;12841153;19;20453;-67
2022/12/24 20:13:18;;;;;;;28.42;14.77;;;;;;;;;;12841452;19;20430;-68
2022/12/24 20:17:35;;;;;;;28.58;12.65;;;;;;;;;;12841280;19;20461;-68
2022/12/24 20:21:51;;;;;;;25.42;11.05;;;;;;;;;;12838631;19;20405;-67
2022/12/24 20:26:12;;;;;;;19.95;8.93;;;;;;;;;;12840633;19;20369;-67
2022/12/24 20:30:29;;;;;;;14.02;6.95;;;;;;;;;;12838195;19;20385;-67
2022/12/24 20:34:46;;;;;;;15.90;5.55;;;;;;;;;;12837495;19;20390;-68
2022/12/24 20:39:04;;;;;;;13.45;5.93;;;;;;;;;;12838178;19;20041;-67
2022/12/24 20:43:21;;;;;;;13.15;5.32;;;;;;;;;;12836906;19;20437;-68
2022/12/24 20:47:40;;;;;;;15.65;6.82;;;;;;;;;;12839704;19;20339;-67
2022/12/24 20:51:57;;;;;;;13.18;6.28;;;;;;;;;;12837976;19;20434;-68
2022/12/24 20:56:16;;;;;;;13.85;6.50;;;;;;;;;;12836305;19;20006;-69
2022/12/24 21:00:32;;;;;;;14.98;7.32;;;;;;;;;;12838477;19;20009;-68
2022/12/24 21:04:49;;;;;;;12.85;6.38;;;;;;;;;;12836653;19;20465;-67
2022/12/24 21:09:13;;;;;;;13.45;5.90;;;;;;;;;;12837956;19;20335;-67
2022/12/24 21:13:30;;;;;;;14.40;6.75;;;;;;;;;;12838485;19;20006;-67
2022/12/24 21:17:47;;;;;;;14.88;7.00;;;;;;;;;;12838727;19;20433;-67
2022/12/24 21:22:04;;;;;;;14.27;6.47;;;;;;;;;;12836225;19;20010;-67
2022/12/24 21:26:22;;;;;;;14.90;6.63;;;;;;;;;;12837997;19;20331;-68
2022/12/24 21:30:39;;;;;;;17.17;7.40;;;;;;;;;;12834882;19;20315;-67
2022/12/24 21:34:56;;;;;;;15.77;6.68;;;;;;;;;;12836597;19;20501;-67
2022/12/24 21:39:13;;;;;;;19.60;8.33;;;;;;;;;;12835840;19;20011;-67
2022/12/24 21:43:31;;;;;;;17.35;6.40;;;;;;;;;;12835627;19;20347;-69
2022/12/24 21:47:48;;;;;;;26.27;6.75;;;;;;;;;;12836880;19;20010;-67
2022/12/24 21:52:05;;;;;;;32.05;11.00;;;;;;;;;;12835041;19;20399;-68
2022/12/24 21:56:22;;;;;;;31.08;12.95;;;;;;;;;;12836268;19;20338;-67
2022/12/24 22:00:40;;;;;;;23.02;9.48;;;;;;;;;;12835616;19;20430;-67
2022/12/24 22:04:57;;;;;;;17.30;6.72;;;;;;;;;;12834866;19;20436;-67
2022/12/24 22:13:49;;;;;;;14.85;6.65;;;;;;;;;;12835141;19;20425;-67
2022/12/24 22:18:06;;;;;;;12.38;6.13;;;;;;;;;;12843135;19;20445;-68
2022/12/24 22:22:23;;;;;;;18.13;7.33;;;;;;;;;;12845033;19;20500;-68
2022/12/24 22:26:40;;;;;;;19.95;8.57;;;;;;;;;;12847033;19;20731;-67
2022/12/24 22:30:57;;;;;;;17.27;8.55;;;;;;;;;;12847329;19;20484;-69
2022/12/24 22:35:14;;;;;;;16.38;9.88;;;;;;;;;;12845980;19;20018;-68
2022/12/24 22:39:31;;;;;;;16.53;9.53;;;;;;;;;;12846301;19;20010;-68
2022/12/24 22:43:49;;;;;;;14.77;7.68;;;;;;;;;;12845552;19;20469;-68
2022/12/24 22:48:06;;;;;;;15.77;8.02;;;;;;;;;;12844311;19;20322;-67
2022/12/24 22:52:23;;;;;;;21.52;8.57;;;;;;;;;;12846060;19;20438;-68
2022/12/24 22:56:40;;;;;;;53.07;23.03;;;;;;;;;;12844277;19;20429;-68
2022/12/24 23:00:57;;;;;;;45.67;26.17;;;;;;;;;;12842525;19;20027;-67
2022/12/24 23:05:15;;;;;;;;;;;;;;;;;;12844415;19;20003;-67
2022/12/24 23:09:32;;;;;;;32.72;16.83;;;;;;;;;;12842683;19;20287;-68
2022/12/24 23:18:25;;;;;;;26.80;16.55;;;;;;;;;;12842903;19;20319;-67
2022/12/24 23:22:43;;;;;;;29.92;15.90;;;;;;;;;;12840829;19;20025;-67
2022/12/24 23:27:00;;;;;;;31.90;16.10;;;;;;;;;;12842718;19;20426;-67
2022/12/24 23:31:18;;;;;;;30.13;14.83;;;;;;;;;;12840083;19;20006;-67
2022/12/24 23:35:35;;;;;;;;;;;;;;;;;;12843550;19;20007;-67
2022/12/24 23:39:52;;;;;;;35.00;14.30;;;;;;;;;;12843053;19;20338;-68
2022/12/24 23:44:09;;;;;;;28.05;12.77;;;;;;;;;;12838096;19;20007;-67
2022/12/24 23:48:26;;;;;;;22.95;11.48;;;;;;;;;;12842661;19;20410;-67
2022/12/24 23:52:43;;;;;;;23.95;10.90;;;;;;;;;;12840291;19;20462;-68
2022/12/24 23:57:00;;;;;;;27.38;13.07;;;;;;;;;;12840213;19;20448;-68
